createdAt,value
2023-02-03T00:00:35.163Z,5.40
2023-02-03T00:05:58.314Z,7.00
2023-02-03T00:11:04.243Z,6.90
2023-02-03T00:16:07.905Z,7.60
2023-02-03T00:21:11.306Z,6.00
2023-02-03T00:26:17.467Z,8.70
2023-02-03T00:31:24.149Z,7.60
2023-02-03T00:36:27.677Z,6.70
2023-02-03T00:41:31.821Z,8.30
2023-02-03T00:46:36.382Z,5.40
2023-02-03T00:51:39.791Z,6.60
2023-02-03T00:56:52.658Z,5.70
2023-02-03T01:01:59.177Z,6.10
2023-02-03T01:07:02.343Z,6.90
2023-02-03T01:12:06.113Z,5.30
2023-02-03T01:17:10.224Z,6.70
2023-02-03T01:22:13.636Z,7.40
2023-02-03T01:27:16.902Z,8.40
2023-02-03T01:32:20.124Z,6.50
2023-02-03T01:37:23.298Z,5.50
2023-02-03T01:42:26.569Z,6.10
2023-02-03T01:47:50.506Z,5.70
2023-02-03T01:52:59.163Z,4.60
2023-02-03T01:58:09.053Z,4.90
2023-02-03T02:03:13.779Z,5.70
2023-02-03T02:08:20.138Z,4.80
2023-02-03T02:13:25.002Z,6.30
2023-02-03T02:19:00.861Z,5.20
2023-02-03T02:24:50.293Z,5.50
2023-02-03T02:30:15.643Z,7.20
2023-02-03T02:35:27.391Z,4.30
2023-02-03T02:40:50.877Z,7.10
2023-02-03T02:46:00.538Z,7.60
2023-02-03T02:51:07.254Z,7.80
2023-02-03T02:56:15.665Z,7.60
2023-02-03T03:01:19.684Z,7.10
2023-02-03T03:06:34.082Z,7.60
2023-02-03T03:12:02.450Z,8.20
2023-02-03T03:17:30.442Z,8.60
2023-02-03T03:22:51.710Z,8.60
2023-02-03T03:28:03.696Z,10.10
2023-02-03T03:33:16.536Z,10.40
2023-02-03T03:38:25.215Z,7.70
2023-02-03T03:43:38.311Z,10.90
2023-02-03T03:48:56.722Z,8.80
2023-02-03T03:54:09.522Z,8.80
2023-02-03T03:59:17.045Z,9.50
2023-02-03T04:04:24.508Z,9.90
2023-02-03T04:09:27.801Z,8.90
2023-02-03T04:14:33.786Z,10.30
2023-02-03T04:19:37.286Z,9.60
2023-02-03T04:24:42.191Z,9.20
2023-02-03T04:29:47.587Z,8.90
2023-02-03T04:34:50.749Z,10.80
2023-02-03T04:39:55.691Z,7.60
2023-02-03T04:44:58.929Z,9.80
2023-02-03T04:50:02.483Z,10.60
2023-02-03T04:55:06.028Z,8.80
2023-02-03T05:00:10.848Z,8.80
2023-02-03T05:05:13.944Z,8.30
2023-02-03T05:10:17.130Z,9.50
2023-02-03T05:15:20.276Z,7.50
2023-02-03T05:20:23.501Z,8.80
2023-02-03T05:25:26.865Z,10.20
2023-02-03T05:30:30.293Z,10.70
2023-02-03T05:35:33.851Z,10.70
2023-02-03T05:40:58.576Z,10.40
2023-02-03T05:46:25.996Z,10.90
2023-02-03T05:51:29.246Z,10.50
2023-02-03T05:56:32.433Z,11.00
2023-02-03T06:01:36.095Z,12.20
2023-02-03T06:06:39.223Z,12.70
2023-02-03T06:12:07.420Z,13.60
2023-02-03T06:17:10.649Z,12.50
2023-02-03T06:22:13.838Z,12.80
2023-02-03T06:27:17.337Z,12.80
2023-02-03T06:32:20.575Z,14.00
2023-02-03T06:37:24.863Z,11.30
2023-02-03T06:42:31.632Z,11.20
2023-02-03T06:47:35.392Z,13.40
2023-02-03T06:52:38.674Z,11.10
2023-02-03T06:57:46.923Z,9.90
2023-02-03T07:02:58.440Z,12.20
2023-02-03T07:08:02.912Z,12.70
2023-02-03T07:13:06.767Z,10.70
2023-02-03T07:18:09.973Z,12.80
2023-02-03T07:24:04.942Z,12.00
2023-02-03T07:29:08.305Z,16.30
2023-02-03T07:34:34.301Z,13.10
2023-02-03T07:39:40.231Z,8.40
2023-02-03T07:44:43.557Z,10.00
2023-02-03T07:49:46.769Z,10.80
2023-02-03T07:54:50.209Z,10.20
2023-02-03T07:59:58.629Z,9.60
2023-02-03T08:05:27.551Z,8.90
2023-02-03T08:10:30.976Z,7.60
2023-02-03T08:15:34.563Z,8.60
2023-02-03T08:20:49.659Z,10.00
2023-02-03T08:25:53.110Z,8.40
2023-02-03T08:30:57.853Z,9.00
2023-02-03T08:36:01.221Z,13.80
2023-02-03T08:41:13.244Z,9.40
2023-02-03T08:46:16.384Z,12.60
2023-02-03T08:51:19.669Z,9.80
2023-02-03T08:56:22.793Z,8.70
2023-02-03T09:01:26.356Z,9.80
2023-02-03T09:06:30.989Z,9.50
2023-02-03T09:11:34.454Z,10.00
2023-02-03T09:16:38.025Z,8.20
2023-02-03T09:21:46.979Z,8.30
2023-02-03T09:26:51.551Z,6.60
2023-02-03T09:31:55.124Z,5.90
2023-02-03T09:36:58.331Z,7.20
2023-02-03T09:42:09.247Z,5.10
2023-02-03T09:47:27.216Z,6.60
2023-02-03T09:52:37.423Z,8.00
2023-02-03T09:57:56.110Z,14.50
2023-02-03T10:03:07.817Z,11.20
2023-02-03T10:08:22.391Z,16.50
2023-02-03T10:13:51.391Z,9.80
2023-02-03T10:19:20.260Z,7.80
2023-02-03T10:24:40.786Z,4.80
2023-02-03T10:29:44.371Z,4.60
2023-02-03T10:34:49.518Z,5.10
2023-02-03T10:39:54.505Z,5.70
2023-02-03T10:45:00.062Z,4.60
2023-02-03T10:50:15.795Z,4.90
2023-02-03T10:55:23.231Z,10.00
2023-02-03T11:00:53.773Z,7.30
2023-02-03T11:06:13.670Z,5.10
2023-02-03T11:11:42.070Z,30.70
2023-02-03T11:16:47.455Z,12.30
2023-02-03T11:21:56.899Z,6.20
2023-02-03T11:27:37.410Z,5.50
2023-02-03T11:32:52.861Z,5.80
2023-02-03T11:38:01.216Z,7.70
2023-02-03T11:43:15.947Z,9.00
2023-02-03T11:48:35.778Z,5.60
2023-02-03T11:53:57.351Z,5.90
2023-02-03T11:59:50.468Z,5.90
2023-02-03T12:05:16.793Z,7.70
2023-02-03T12:10:26.133Z,7.70
2023-02-03T12:15:52.587Z,15.30
2023-02-03T12:21:29.619Z,6.70
2023-02-03T12:27:01.597Z,6.70
2023-02-03T12:32:07.905Z,8.60
2023-02-03T12:37:19.239Z,7.90
2023-02-03T12:42:36.784Z,8.10
2023-02-03T12:48:36.840Z,8.40
2023-02-03T12:54:02.630Z,8.50
2023-02-03T12:59:22.667Z,8.70
2023-02-03T13:04:57.358Z,8.40
2023-02-03T13:10:19.385Z,8.40
2023-02-03T13:15:25.671Z,8.20
2023-02-03T13:20:41.093Z,10.30
2023-02-03T13:26:36.914Z,11.00
2023-02-03T13:32:07.698Z,9.40
2023-02-03T13:37:33.176Z,9.80
2023-02-03T13:42:41.581Z,12.10
2023-02-03T13:47:52.305Z,12.50
2023-02-03T13:53:02.908Z,11.60
2023-02-03T13:58:19.179Z,18.90
2023-02-03T14:03:25.161Z,14.40
2023-02-03T14:08:48.724Z,12.20
2023-02-03T14:13:51.917Z,14.50
2023-02-03T14:18:57.179Z,16.20
2023-02-03T14:24:07.528Z,14.70
2023-02-03T14:29:25.882Z,17.70
2023-02-03T14:34:39.474Z,18.00
2023-02-03T14:40:11.642Z,20.60
2023-02-03T14:45:52.281Z,19.80
2023-02-03T14:52:01.633Z,19.30
2023-02-03T14:57:31.210Z,17.90
2023-02-03T15:02:35.306Z,24.00
2023-02-03T15:07:46.630Z,21.00
2023-02-03T15:12:52.782Z,16.90
2023-02-03T15:18:01.137Z,16.10
2023-02-03T15:23:24.909Z,16.50
2023-02-03T15:28:31.733Z,16.60
2023-02-03T15:33:57.156Z,16.60
2023-02-03T15:39:17.270Z,16.10
2023-02-03T15:44:42.153Z,13.70
2023-02-03T15:50:00.448Z,16.70
2023-02-03T15:55:17.830Z,19.30
2023-02-03T16:00:33.666Z,18.30
2023-02-03T16:05:39.914Z,14.10
2023-02-03T16:10:49.138Z,21.20
2023-02-03T16:16:18.411Z,17.40
2023-02-03T16:21:52.410Z,18.30
2023-02-03T16:26:55.757Z,17.60
2023-02-03T16:32:18.044Z,18.40
2023-02-03T16:37:44.697Z,18.30
2023-02-03T16:43:08.228Z,18.50
2023-02-03T16:48:31.649Z,18.00
2023-02-03T16:53:56.344Z,21.30
2023-02-03T16:58:59.491Z,22.50
2023-02-03T17:04:02.840Z,18.90
2023-02-03T17:09:07.284Z,21.10
2023-02-03T17:14:13.156Z,21.00
2023-02-03T17:19:16.233Z,20.20
2023-02-03T17:24:22.615Z,16.70
2023-02-03T17:29:25.988Z,15.00
2023-02-03T17:34:29.282Z,19.20
2023-02-03T18:00:40.802Z,20.30
2023-02-03T18:05:53.469Z,17.70
2023-02-03T18:10:56.764Z,20.40
2023-02-03T18:16:00.152Z,20.40
2023-02-03T18:21:07.992Z,19.80
2023-02-03T18:26:13.255Z,21.60
2023-02-03T18:31:17.787Z,19.40
2023-02-03T18:36:22.062Z,20.30
2023-02-03T18:41:25.978Z,21.80
2023-02-03T18:46:31.761Z,23.90
2023-02-03T18:51:35.152Z,20.60
2023-02-03T18:56:38.944Z,22.70
2023-02-03T19:01:46.608Z,23.80
2023-02-03T19:06:51.612Z,25.20
2023-02-03T19:11:55.187Z,30.10
2023-02-03T19:16:58.962Z,28.60
2023-02-03T19:22:02.374Z,29.10
2023-02-03T19:27:05.898Z,31.30
2023-02-03T19:32:09.933Z,36.60
2023-02-03T19:37:13.548Z,35.30
2023-02-03T19:42:17.045Z,40.00
2023-02-03T19:47:20.797Z,38.80
2023-02-03T19:52:24.370Z,35.80
2023-02-03T19:57:27.525Z,39.30
2023-02-03T20:02:31.204Z,35.50
2023-02-03T20:07:34.626Z,33.10
2023-02-03T20:12:58.914Z,35.90
2023-02-03T20:18:02.314Z,33.90
2023-02-03T20:29:10.379Z,27.60
2023-02-03T20:34:13.619Z,30.90
2023-02-03T20:39:20.030Z,34.70
2023-02-03T20:44:23.352Z,31.50
2023-02-03T20:49:26.709Z,30.40
2023-02-03T20:54:30.295Z,35.80
2023-02-03T20:59:33.490Z,28.60
2023-02-03T21:04:55.474Z,26.40
2023-02-03T21:10:00.297Z,31.00
2023-02-03T21:15:18.608Z,35.40
2023-02-03T21:20:29.829Z,28.40
2023-02-03T21:25:34.313Z,29.90
2023-02-03T21:30:37.687Z,29.20
2023-02-03T21:35:41.092Z,31.50
2023-02-03T21:40:44.363Z,27.00
2023-02-03T21:45:49.422Z,31.60
2023-02-03T21:50:54.511Z,32.80
2023-02-03T21:56:14.304Z,27.80
2023-02-03T22:01:20.219Z,26.40
2023-02-03T22:06:56.760Z,26.30
2023-02-03T22:12:01.297Z,29.70
2023-02-03T22:17:04.754Z,34.10
2023-02-03T22:22:08.065Z,30.80
2023-02-03T22:27:11.671Z,32.20
2023-02-03T22:32:15.010Z,26.10
2023-02-03T22:37:18.260Z,31.10
2023-02-03T22:42:24.270Z,28.50
2023-02-03T22:47:27.413Z,28.10
2023-02-03T22:52:44.552Z,26.00
2023-02-03T22:57:50.061Z,25.90
2023-02-03T23:02:53.552Z,23.80
2023-02-03T23:08:07.304Z,24.70
2023-02-03T23:13:23.331Z,26.70
2023-02-03T23:18:27.062Z,25.80
2023-02-03T23:23:30.404Z,22.30
2023-02-03T23:28:33.717Z,21.70
2023-02-03T23:33:37.408Z,18.60
2023-02-03T23:38:44.095Z,19.30
2023-02-03T23:43:53.997Z,19.70
2023-02-03T23:49:07.552Z,17.50
2023-02-03T23:54:11.188Z,14.70
2023-02-03T23:59:14.614Z,16.80
